sensor_id;sensor_type;location;lat;lon;timestamp;pressure;altitude;pressure_sealevel;temperature;humidity
36260;BME280;22296;50.824;5.644;2023-04-24T00:01:07;99315.44;;;16.11;58.48
36260;BME280;22296;50.824;5.644;2023-04-24T00:03:36;99321.00;;;16.11;58.47
36260;BME280;22296;50.824;5.644;2023-04-24T00:06:04;99319.38;;;16.10;58.52
36260;BME280;22296;50.824;5.644;2023-04-24T00:08:31;99323.78;;;16.11;58.47
36260;BME280;22296;50.824;5.644;2023-04-24T00:10:58;99326.56;;;16.11;58.36
36260;BME280;22296;50.824;5.644;2023-04-24T00:13:25;99326.47;;;16.08;58.58
36260;BME280;22296;50.824;5.644;2023-04-24T00:15:55;99322.53;;;16.09;58.50
36260;BME280;22296;50.824;5.644;2023-04-24T00:18:22;99331.69;;;16.09;58.56
36260;BME280;22296;50.824;5.644;2023-04-24T00:20:49;99335.28;;;16.10;58.56
36260;BME280;22296;50.824;5.644;2023-04-24T00:23:15;99324.06;;;16.06;58.59
36260;BME280;22296;50.824;5.644;2023-04-24T00:25:42;99329.63;;;16.06;58.73
36260;BME280;22296;50.824;5.644;2023-04-24T00:28:09;99330.44;;;16.07;58.60
36260;BME280;22296;50.824;5.644;2023-04-24T00:30:35;99322.88;;;16.07;58.52
36260;BME280;22296;50.824;5.644;2023-04-24T00:33:02;99318.06;;;16.04;58.54
36260;BME280;22296;50.824;5.644;2023-04-24T00:35:29;99331.16;;;16.04;58.73
36260;BME280;22296;50.824;5.644;2023-04-24T00:37:56;99333.84;;;16.00;58.69
36260;BME280;22296;50.824;5.644;2023-04-24T00:40:23;99329.84;;;15.98;58.83
36260;BME280;22296;50.824;5.644;2023-04-24T00:42:50;99327.88;;;15.98;58.84
36260;BME280;22296;50.824;5.644;2023-04-24T00:45:17;99331.41;;;15.98;58.84
36260;BME280;22296;50.824;5.644;2023-04-24T00:47:43;99330.19;;;15.96;58.96
36260;BME280;22296;50.824;5.644;2023-04-24T00:50:11;99328.59;;;15.95;58.92
36260;BME280;22296;50.824;5.644;2023-04-24T00:52:40;99319.88;;;15.96;58.86
36260;BME280;22296;50.824;5.644;2023-04-24T00:55:08;99329.41;;;15.95;58.93
36260;BME280;22296;50.824;5.644;2023-04-24T00:57:34;99322.94;;;15.91;58.96
36260;BME280;22296;50.824;5.644;2023-04-24T01:00:02;99326.16;;;15.93;58.99
36260;BME280;22296;50.824;5.644;2023-04-24T01:02:30;99326.97;;;15.94;58.89
36260;BME280;22296;50.824;5.644;2023-04-24T01:04:57;99316.66;;;15.94;58.87
36260;BME280;22296;50.824;5.644;2023-04-24T01:07:24;99319.78;;;15.93;58.93
36260;BME280;22296;50.824;5.644;2023-04-24T01:09:54;99316.56;;;15.91;58.91
36260;BME280;22296;50.824;5.644;2023-04-24T01:12:20;99327.69;;;15.91;58.92
36260;BME280;22296;50.824;5.644;2023-04-24T01:14:47;99314.22;;;15.93;58.87
36260;BME280;22296;50.824;5.644;2023-04-24T01:17:16;99322.13;;;15.91;58.93
36260;BME280;22296;50.824;5.644;2023-04-24T01:19:43;99324.91;;;15.91;58.84
36260;BME280;22296;50.824;5.644;2023-04-24T01:22:13;99318.91;;;15.89;59.06
36260;BME280;22296;50.824;5.644;2023-04-24T01:24:41;99321.22;;;15.87;58.98
36260;BME280;22296;50.824;5.644;2023-04-24T01:27:11;99315.31;;;15.88;59.04
36260;BME280;22296;50.824;5.644;2023-04-24T01:29:38;99305.00;;;15.89;58.99
36260;BME280;22296;50.824;5.644;2023-04-24T01:32:06;99317.66;;;15.86;59.10
36260;BME280;22296;50.824;5.644;2023-04-24T01:34:34;99321.22;;;15.87;58.98
36260;BME280;22296;50.824;5.644;2023-04-24T01:37:00;99323.56;;;15.85;59.07
36260;BME280;22296;50.824;5.644;2023-04-24T01:39:27;99318.03;;;15.85;58.87
36260;BME280;22296;50.824;5.644;2023-04-24T01:41:55;99325.19;;;15.86;59.10
36260;BME280;22296;50.824;5.644;2023-04-24T01:44:23;99327.56;;;15.84;59.08
36260;BME280;22296;50.824;5.644;2023-04-24T01:46:50;99328.72;;;15.83;59.13
36260;BME280;22296;50.824;5.644;2023-04-24T01:49:17;99321.59;;;15.85;59.01
36260;BME280;22296;50.824;5.644;2023-04-24T01:51:44;99320.00;;;15.84;59.09
36260;BME280;22296;50.824;5.644;2023-04-24T01:54:11;99324.31;;;15.82;59.18
36260;BME280;22296;50.824;5.644;2023-04-24T01:56:42;99324.31;;;15.82;59.16
36260;BME280;22296;50.824;5.644;2023-04-24T01:59:12;99317.16;;;15.81;59.21
36260;BME280;22296;50.824;5.644;2023-04-24T02:01:39;99320.72;;;15.81;59.19
36260;BME280;22296;50.824;5.644;2023-04-24T02:04:07;99318.66;;;15.78;59.29
36260;BME280;22296;50.824;5.644;2023-04-24T02:06:35;99317.16;;;15.81;59.13
36260;BME280;22296;50.824;5.644;2023-04-24T02:09:02;99318.31;;;15.80;59.32
36260;BME280;22296;50.824;5.644;2023-04-24T02:11:30;99322.25;;;15.79;59.27
36260;BME280;22296;50.824;5.644;2023-04-24T02:13:57;99327.38;;;15.77;59.32
36260;BME280;22296;50.824;5.644;2023-04-24T02:16:24;99324.59;;;15.77;59.40
36260;BME280;22296;50.824;5.644;2023-04-24T02:18:51;99323.44;;;15.78;59.15
36260;BME280;22296;50.824;5.644;2023-04-24T02:21:18;99325.75;;;15.76;59.34
36260;BME280;22296;50.824;5.644;2023-04-24T02:23:45;99331.31;;;15.76;59.22
36260;BME280;22296;50.824;5.644;2023-04-24T02:26:12;99320.19;;;15.76;59.19
36260;BME280;22296;50.824;5.644;2023-04-24T02:28:39;99328.91;;;15.74;59.25
36260;BME280;22296;50.824;5.644;2023-04-24T02:31:06;99324.16;;;15.75;59.17
36260;BME280;22296;50.824;5.644;2023-04-24T02:33:33;99319.31;;;15.72;59.21
36260;BME280;22296;50.824;5.644;2023-04-24T02:36:00;99328.91;;;15.74;59.01
36260;BME280;22296;50.824;5.644;2023-04-24T02:38:26;99325.31;;;15.74;59.29
36260;BME280;22296;50.824;5.644;2023-04-24T02:40:53;99334.81;;;15.73;59.24
36260;BME280;22296;50.824;5.644;2023-04-24T02:43:20;99324.06;;;15.71;59.18
36260;BME280;22296;50.824;5.644;2023-04-24T02:45:47;99329.53;;;15.68;59.38
36260;BME280;22296;50.824;5.644;2023-04-24T02:48:14;99320.03;;;15.69;59.34
36260;BME280;22296;50.824;5.644;2023-04-24T02:50:41;99328.38;;;15.69;59.39
36260;BME280;22296;50.824;5.644;2023-04-24T02:53:07;99323.97;;;15.68;59.36
36260;BME280;22296;50.824;5.644;2023-04-24T02:55:34;99316.03;;;15.66;59.27
36260;BME280;22296;50.824;5.644;2023-04-24T02:58:02;99315.19;;;15.66;59.19
36260;BME280;22296;50.824;5.644;2023-04-24T03:00:29;99315.94;;;15.63;59.51
36260;BME280;22296;50.824;5.644;2023-04-24T03:02:56;99314.78;;;15.64;59.47
36260;BME280;22296;50.824;5.644;2023-04-24T03:05:23;99324.69;;;15.65;59.40
36260;BME280;22296;50.824;5.644;2023-04-24T03:07:50;99325.88;;;15.64;59.37
36260;BME280;22296;50.824;5.644;2023-04-24T03:10:20;99324.69;;;15.65;59.31
36260;BME280;22296;50.824;5.644;2023-04-24T03:12:49;99320.31;;;15.64;59.43
36260;BME280;22296;50.824;5.644;2023-04-24T03:15:17;99319.88;;;15.62;59.47
36260;BME280;22296;50.824;5.644;2023-04-24T03:17:44;99326.59;;;15.61;59.57
36260;BME280;22296;50.824;5.644;2023-04-24T03:20:11;99318.28;;;15.61;59.60
36260;BME280;22296;50.824;5.644;2023-04-24T03:22:38;99325.69;;;15.57;59.51
36260;BME280;22296;50.824;5.644;2023-04-24T03:25:07;99327.75;;;15.60;59.33
36260;BME280;22296;50.824;5.644;2023-04-24T03:27:36;99327.75;;;15.60;59.36
36260;BME280;22296;50.824;5.644;2023-04-24T03:30:15;99326.13;;;15.59;59.60
36260;BME280;22296;50.824;5.644;2023-04-24T03:32:49;99331.69;;;15.59;59.53
36260;BME280;22296;50.824;5.644;2023-04-24T03:35:22;99337.25;;;15.59;59.58
36260;BME280;22296;50.824;5.644;2023-04-24T03:37:49;99338.78;;;15.56;59.60
36260;BME280;22296;50.824;5.644;2023-04-24T03:40:36;99333.22;;;15.56;59.65
36260;BME280;22296;50.824;5.644;2023-04-24T03:43:11;99333.94;;;15.53;59.68
36260;BME280;22296;50.824;5.644;2023-04-24T03:45:38;99339.97;;;15.55;59.62
36260;BME280;22296;50.824;5.644;2023-04-24T03:48:05;99339.50;;;15.53;59.71
36260;BME280;22296;50.824;5.644;2023-04-24T03:50:33;99334.31;;;15.52;59.70
36260;BME280;22296;50.824;5.644;2023-04-24T03:53:00;99333.88;;;15.50;59.76
36260;BME280;22296;50.824;5.644;2023-04-24T03:55:34;99332.69;;;15.51;59.78
36260;BME280;22296;50.824;5.644;2023-04-24T03:58:02;99335.47;;;15.51;59.66
36260;BME280;22296;50.824;5.644;2023-04-24T04:00:29;99334.66;;;15.50;59.71
36260;BME280;22296;50.824;5.644;2023-04-24T04:03:18;99339.44;;;15.50;59.70
36260;BME280;22296;50.824;5.644;2023-04-24T04:05:46;99339.31;;;15.46;59.74
36260;BME280;22296;50.824;5.644;2023-04-24T04:08:12;99341.75;;;15.48;59.75
36260;BME280;22296;50.824;5.644;2023-04-24T04:10:39;99341.75;;;15.48;59.69
36260;BME280;22296;50.824;5.644;2023-04-24T04:13:06;99348.13;;;15.48;59.78
36260;BME280;22296;50.824;5.644;2023-04-24T04:15:34;99351.28;;;15.47;59.66
36260;BME280;22296;50.824;5.644;2023-04-24T04:18:01;99348.81;;;15.45;59.74
36260;BME280;22296;50.824;5.644;2023-04-24T04:20:28;99353.56;;;15.45;59.65
36260;BME280;22296;50.824;5.644;2023-04-24T04:22:55;99350.34;;;15.43;59.72
36260;BME280;22296;50.824;5.644;2023-04-24T04:25:33;99347.13;;;15.40;59.80
36260;BME280;22296;50.824;5.644;2023-04-24T04:28:01;99355.88;;;15.43;59.82
36260;BME280;22296;50.824;5.644;2023-04-24T04:30:28;99348.72;;;15.41;59.77
36260;BME280;22296;50.824;5.644;2023-04-24T04:33:02;99351.88;;;15.40;59.88
36260;BME280;22296;50.824;5.644;2023-04-24T04:35:30;99351.06;;;15.39;59.94
36260;BME280;22296;50.824;5.644;2023-04-24T04:37:58;99352.69;;;15.40;60.02
36260;BME280;22296;50.824;5.644;2023-04-24T04:40:25;99350.97;;;15.36;60.02
36260;BME280;22296;50.824;5.644;2023-04-24T04:42:57;99358.22;;;15.40;59.86
36260;BME280;22296;50.824;5.644;2023-04-24T04:45:27;99357.75;;;15.38;59.92
36260;BME280;22296;50.824;5.644;2023-04-24T04:48:33;99365.66;;;15.36;60.02
36260;BME280;22296;50.824;5.644;2023-04-24T04:51:02;99375.16;;;15.35;60.07
36260;BME280;22296;50.824;5.644;2023-04-24T04:53:29;99376.34;;;15.34;60.01
36260;BME280;22296;50.824;5.644;2023-04-24T04:55:56;99373.09;;;15.32;60.16
36260;BME280;22296;50.824;5.644;2023-04-24T04:58:27;99372.28;;;15.32;59.92
36260;BME280;22296;50.824;5.644;2023-04-24T05:00:57;99373.09;;;15.32;60.27
36260;BME280;22296;50.824;5.644;2023-04-24T05:03:35;99380.97;;;15.30;60.20
36260;BME280;22296;50.824;5.644;2023-04-24T05:06:06;99383.41;;;15.32;60.21
36260;BME280;22296;50.824;5.644;2023-04-24T05:08:36;99391.28;;;15.30;60.30
36260;BME280;22296;50.824;5.644;2023-04-24T05:11:06;99390.94;;;15.31;60.10
36260;BME280;22296;50.824;5.644;2023-04-24T05:13:33;99392.47;;;15.29;60.25
36260;BME280;22296;50.824;5.644;2023-04-24T05:16:21;99391.09;;;15.38;60.10
36260;BME280;22296;50.824;5.644;2023-04-24T05:18:50;99396.59;;;15.35;60.35
36260;BME280;22296;50.824;5.644;2023-04-24T05:21:22;99404.81;;;15.31;60.31
36260;BME280;22296;50.824;5.644;2023-04-24T05:23:50;99409.47;;;15.27;60.42
36260;BME280;22296;50.824;5.644;2023-04-24T05:26:29;99415.00;;;15.27;60.32
36260;BME280;22296;50.824;5.644;2023-04-24T05:28:58;99415.81;;;15.28;60.36
36260;BME280;22296;50.824;5.644;2023-04-24T05:31:25;99423.72;;;15.26;60.43
36260;BME280;22296;50.824;5.644;2023-04-24T05:33:52;99422.91;;;15.25;60.24
36260;BME280;22296;50.824;5.644;2023-04-24T05:36:19;99424.44;;;15.23;60.22
36260;BME280;22296;50.824;5.644;2023-04-24T05:38:46;99421.66;;;15.23;60.16
36260;BME280;22296;50.824;5.644;2023-04-24T05:41:13;99433.91;;;15.22;60.15
36260;BME280;22296;50.824;5.644;2023-04-24T05:43:40;99446.97;;;15.21;60.16
36260;BME280;22296;50.824;5.644;2023-04-24T05:46:07;99452.53;;;15.21;60.07
36260;BME280;22296;50.824;5.644;2023-04-24T05:48:34;99454.06;;;15.19;60.07
36260;BME280;22296;50.824;5.644;2023-04-24T05:51:02;99454.44;;;15.17;60.10
36260;BME280;22296;50.824;5.644;2023-04-24T05:53:30;99449.69;;;15.18;60.01
36260;BME280;22296;50.824;5.644;2023-04-24T05:55:57;99463.91;;;15.16;60.27
36260;BME280;22296;50.824;5.644;2023-04-24T05:58:24;99474.22;;;15.16;59.99
36260;BME280;22296;50.824;5.644;2023-04-24T06:00:51;99471.81;;;15.14;59.95
36260;BME280;22296;50.824;5.644;2023-04-24T06:03:17;99474.91;;;15.13;60.03
36260;BME280;22296;50.824;5.644;2023-04-24T06:05:47;99486.84;;;15.13;59.88
36260;BME280;22296;50.824;5.644;2023-04-24T06:08:13;99489.59;;;15.13;60.06
36260;BME280;22296;50.824;5.644;2023-04-24T06:10:42;99490.78;;;15.12;59.95
36260;BME280;22296;50.824;5.644;2023-04-24T06:13:10;99492.94;;;15.19;60.20
36260;BME280;22296;50.824;5.644;2023-04-24T06:15:41;99511.47;;;15.43;59.81
36260;BME280;22296;50.824;5.644;2023-04-24T06:18:19;99515.19;;;15.47;59.84
36260;BME280;22296;50.824;5.644;2023-04-24T06:20:47;99522.06;;;15.53;59.93
36260;BME280;22296;50.824;5.644;2023-04-24T06:23:14;99525.31;;;15.55;59.97
36260;BME280;22296;50.824;5.644;2023-04-24T06:25:41;99540.09;;;15.59;59.95
36260;BME280;22296;50.824;5.644;2023-04-24T06:28:10;99527.56;;;15.49;59.93
36260;BME280;22296;50.824;5.644;2023-04-24T06:30:37;99543.16;;;15.41;60.07
36260;BME280;22296;50.824;5.644;2023-04-24T06:33:04;99535.91;;;15.37;59.87
36260;BME280;22296;50.824;5.644;2023-04-24T06:35:45;99542.28;;;15.37;59.74
36260;BME280;22296;50.824;5.644;2023-04-24T06:38:12;99549.44;;;15.38;59.91
36260;BME280;22296;50.824;5.644;2023-04-24T06:40:38;99546.66;;;15.38;59.44
36260;BME280;22296;50.824;5.644;2023-04-24T06:43:05;99547.03;;;15.37;59.58
36260;BME280;22296;50.824;5.644;2023-04-24T06:45:32;99552.69;;;15.40;59.45
36260;BME280;22296;50.824;5.644;2023-04-24T06:47:59;99551.78;;;15.36;59.40
36260;BME280;22296;50.824;5.644;2023-04-24T06:50:26;99551.16;;;15.43;59.24
36260;BME280;22296;50.824;5.644;2023-04-24T06:52:53;99558.19;;;15.53;58.88
36260;BME280;22296;50.824;5.644;2023-04-24T06:55:20;99570.44;;;15.64;58.62
36260;BME280;22296;50.824;5.644;2023-04-24T06:57:46;99577.31;;;15.70;58.43
36260;BME280;22296;50.824;5.644;2023-04-24T07:00:14;99580.53;;;16.00;58.48
36260;BME280;22296;50.824;5.644;2023-04-24T07:02:40;99595.06;;;16.40;57.34
36260;BME280;22296;50.824;5.644;2023-04-24T07:05:07;99599.28;;;16.49;57.15
36260;BME280;22296;50.824;5.644;2023-04-24T07:07:35;99604.94;;;16.37;57.16
36260;BME280;22296;50.824;5.644;2023-04-24T07:10:05;99609.59;;;16.33;57.18
36260;BME280;22296;50.824;5.644;2023-04-24T07:12:32;99610.13;;;16.39;57.01
36260;BME280;22296;50.824;5.644;2023-04-24T07:15:00;99611.66;;;16.36;57.13
36260;BME280;22296;50.824;5.644;2023-04-24T07:17:27;99614.19;;;16.41;57.01
36260;BME280;22296;50.824;5.644;2023-04-24T07:19:53;99626.91;;;16.42;56.97
36260;BME280;22296;50.824;5.644;2023-04-24T07:22:20;99624.59;;;16.44;56.94
36260;BME280;22296;50.824;5.644;2023-04-24T07:24:47;99633.84;;;16.48;56.90
36260;BME280;22296;50.824;5.644;2023-04-24T07:27:14;99636.38;;;16.53;56.82
36260;BME280;22296;50.824;5.644;2023-04-24T07:29:42;99642.13;;;16.61;56.87
36260;BME280;22296;50.824;5.644;2023-04-24T07:32:09;99637.91;;;16.67;56.46
36260;BME280;22296;50.824;5.644;2023-04-24T07:34:36;99650.63;;;16.68;56.55
36260;BME280;22296;50.824;5.644;2023-04-24T07:37:03;99644.28;;;16.67;56.39
36260;BME280;22296;50.824;5.644;2023-04-24T07:39:30;99652.69;;;16.71;56.45
36260;BME280;22296;50.824;5.644;2023-04-24T07:41:58;99652.34;;;16.72;56.26
36260;BME280;22296;50.824;5.644;2023-04-24T07:44:26;99652.34;;;16.72;56.21
36260;BME280;22296;50.824;5.644;2023-04-24T07:46:53;99658.75;;;16.73;56.25
36260;BME280;22296;50.824;5.644;2023-04-24T07:49:19;99660.34;;;16.74;56.36
36260;BME280;22296;50.824;5.644;2023-04-24T07:51:46;99665.56;;;16.75;56.36
36260;BME280;22296;50.824;5.644;2023-04-24T07:54:13;99666.91;;;16.81;56.14
36260;BME280;22296;50.824;5.644;2023-04-24T07:56:41;99677.22;;;16.81;56.27
36260;BME280;22296;50.824;5.644;2023-04-24T07:59:09;99670.03;;;16.80;56.27
36260;BME280;22296;50.824;5.644;2023-04-24T08:01:36;99685.16;;;16.79;56.15
36260;BME280;22296;50.824;5.644;2023-04-24T08:04:03;99699.50;;;16.81;56.28
36260;BME280;22296;50.824;5.644;2023-04-24T08:06:30;99694.81;;;16.85;56.15
36260;BME280;22296;50.824;5.644;2023-04-24T08:08:59;99688.81;;;16.83;56.02
36260;BME280;22296;50.824;5.644;2023-04-24T08:11:26;99691.59;;;16.83;56.29
36260;BME280;22296;50.824;5.644;2023-04-24T08:13:53;99699.66;;;16.88;55.99
36260;BME280;22296;50.824;5.644;2023-04-24T08:16:21;99692.50;;;16.87;56.07
36260;BME280;22296;50.824;5.644;2023-04-24T08:18:50;99708.50;;;16.90;55.99
36260;BME280;22296;50.824;5.644;2023-04-24T08:21:17;99715.66;;;16.91;56.19
36260;BME280;22296;50.824;5.644;2023-04-24T08:23:45;99715.94;;;16.86;56.14
36260;BME280;22296;50.824;5.644;2023-04-24T08:26:13;99718.00;;;16.89;56.16
36260;BME280;22296;50.824;5.644;2023-04-24T08:28:40;99722.41;;;16.90;56.16
36260;BME280;22296;50.824;5.644;2023-04-24T08:31:07;99728.41;;;16.92;56.14
36260;BME280;22296;50.824;5.644;2023-04-24T08:33:33;99738.84;;;16.95;55.82
36260;BME280;22296;50.824;5.644;2023-04-24T08:36:04;99741.25;;;16.96;55.89
36260;BME280;22296;50.824;5.644;2023-04-24T08:38:31;99753.56;;;16.95;56.03
36260;BME280;22296;50.824;5.644;2023-04-24T08:40:59;99769.09;;;16.96;55.96
36260;BME280;22296;50.824;5.644;2023-04-24T08:43:27;99773.06;;;16.95;55.92
36260;BME280;22296;50.824;5.644;2023-04-24T08:45:56;99772.34;;;16.98;55.87
36260;BME280;22296;50.824;5.644;2023-04-24T08:48:23;99779.91;;;16.98;55.75
36260;BME280;22296;50.824;5.644;2023-04-24T08:50:58;99789.13;;;17.02;55.86
36260;BME280;22296;50.824;5.644;2023-04-24T08:53:26;99789.50;;;17.00;56.08
36260;BME280;22296;50.824;5.644;2023-04-24T08:55:55;99784.03;;;17.04;55.81
36260;BME280;22296;50.824;5.644;2023-04-24T08:58:25;99791.19;;;17.05;55.85
36260;BME280;22296;50.824;5.644;2023-04-24T09:00:55;99792.38;;;17.04;55.74
36260;BME280;22296;50.824;5.644;2023-04-24T09:03:22;99805.13;;;17.05;55.81
36260;BME280;22296;50.824;5.644;2023-04-24T09:05:50;99800.47;;;17.09;55.65
36260;BME280;22296;50.824;5.644;2023-04-24T09:08:18;99803.59;;;17.07;55.93
36260;BME280;22296;50.824;5.644;2023-04-24T09:10:45;99817.19;;;17.09;55.59
36260;BME280;22296;50.824;5.644;2023-04-24T09:13:16;99814.03;;;17.10;55.71
36260;BME280;22296;50.824;5.644;2023-04-24T09:15:43;99810.53;;;17.14;55.65
36260;BME280;22296;50.824;5.644;2023-04-24T09:18:10;99816.91;;;17.14;55.79
36260;BME280;22296;50.824;5.644;2023-04-24T09:23:29;99825.25;;;17.14;55.43
36260;BME280;22296;50.824;5.644;2023-04-24T09:25:56;99831.03;;;17.21;55.32
36260;BME280;22296;50.824;5.644;2023-04-24T09:28:30;99830.56;;;17.19;55.63
36260;BME280;22296;50.824;5.644;2023-04-24T09:33:31;99830.94;;;17.18;55.30
36260;BME280;22296;50.824;5.644;2023-04-24T09:35:57;99831.75;;;17.18;55.56
36260;BME280;22296;50.824;5.644;2023-04-24T09:38:36;99841.38;;;17.21;55.37
36260;BME280;22296;50.824;5.644;2023-04-24T09:41:05;99842.19;;;17.21;55.47
36260;BME280;22296;50.824;5.644;2023-04-24T09:43:33;99839.72;;;17.20;55.47
36260;BME280;22296;50.824;5.644;2023-04-24T09:46:05;99851.69;;;17.20;55.57
36260;BME280;22296;50.824;5.644;2023-04-24T09:48:34;99848.56;;;17.22;55.26
36260;BME280;22296;50.824;5.644;2023-04-24T09:51:03;99858.09;;;17.21;55.40
36260;BME280;22296;50.824;5.644;2023-04-24T09:53:30;99853.31;;;17.21;55.50
36260;BME280;22296;50.824;5.644;2023-04-24T09:56:07;99854.47;;;17.20;55.39
36260;BME280;22296;50.824;5.644;2023-04-24T09:58:36;99854.91;;;17.22;55.29
36260;BME280;22296;50.824;5.644;2023-04-24T10:01:03;99855.28;;;17.21;55.62
36260;BME280;22296;50.824;5.644;2023-04-24T10:03:31;99850.97;;;17.23;55.54
36260;BME280;22296;50.824;5.644;2023-04-24T10:06:00;99858.19;;;17.24;55.33
36260;BME280;22296;50.824;5.644;2023-04-24T10:08:33;99864.56;;;17.25;55.46
36260;BME280;22296;50.824;5.644;2023-04-24T10:11:01;99859.44;;;17.27;55.22
36260;BME280;22296;50.824;5.644;2023-04-24T10:13:28;99860.16;;;17.24;55.85
36260;BME280;22296;50.824;5.644;2023-04-24T10:15:56;99860.13;;;17.39;55.83
36260;BME280;22296;50.824;5.644;2023-04-24T10:18:24;99858.88;;;17.52;55.59
36260;BME280;22296;50.824;5.644;2023-04-24T10:20:52;99863.06;;;17.58;55.58
36260;BME280;22296;50.824;5.644;2023-04-24T10:23:21;99876.34;;;17.65;55.52
36260;BME280;22296;50.824;5.644;2023-04-24T10:25:50;99880.47;;;17.71;55.38
36260;BME280;22296;50.824;5.644;2023-04-24T10:28:18;99887.28;;;17.74;55.44
36260;BME280;22296;50.824;5.644;2023-04-24T10:30:45;99896.66;;;17.81;55.08
36260;BME280;22296;50.824;5.644;2023-04-24T10:33:13;99886.75;;;17.84;55.12
36260;BME280;22296;50.824;5.644;2023-04-24T10:35:44;99893.97;;;17.85;55.13
36260;BME280;22296;50.824;5.644;2023-04-24T10:38:14;99889.97;;;17.86;54.96
36260;BME280;22296;50.824;5.644;2023-04-24T10:40:42;99890.56;;;17.76;54.93
36260;BME280;22296;50.824;5.644;2023-04-24T10:43:10;99890.84;;;17.71;54.73
36260;BME280;22296;50.824;5.644;2023-04-24T10:46:00;99903.88;;;17.67;55.04
36260;BME280;22296;50.824;5.644;2023-04-24T10:48:27;99905.03;;;17.65;54.70
36260;BME280;22296;50.824;5.644;2023-04-24T10:50:54;99903.06;;;17.66;54.90
36260;BME280;22296;50.824;5.644;2023-04-24T10:53:23;99901.81;;;17.63;54.88
36260;BME280;22296;50.824;5.644;2023-04-24T10:56:15;99904.16;;;17.61;54.80
36260;BME280;22296;50.824;5.644;2023-04-24T10:58:43;99909.25;;;17.59;54.88
36260;BME280;22296;50.824;5.644;2023-04-24T11:01:31;99912.88;;;17.60;54.96
36260;BME280;22296;50.824;5.644;2023-04-24T11:04:03;99919.16;;;17.57;55.16
36260;BME280;22296;50.824;5.644;2023-04-24T11:06:32;99927.63;;;17.60;54.83
36260;BME280;22296;50.824;5.644;2023-04-24T11:09:03;99921.81;;;17.53;54.80
36260;BME280;22296;50.824;5.644;2023-04-24T11:11:32;99921.75;;;17.50;55.01
36260;BME280;22296;50.824;5.644;2023-04-24T11:16:31;99919.41;;;17.52;55.19
36260;BME280;22296;50.824;5.644;2023-04-24T11:24:28;99913.00;;;17.51;55.03
36260;BME280;22296;50.824;5.644;2023-04-24T11:32:35;99920.94;;;17.49;54.95
36260;BME280;22296;50.824;5.644;2023-04-24T11:37:52;99922.38;;;17.43;55.19
36260;BME280;22296;50.824;5.644;2023-04-24T11:40:39;99927.31;;;17.50;54.91
36260;BME280;22296;50.824;5.644;2023-04-24T11:43:06;99930.34;;;17.45;55.21
36260;BME280;22296;50.824;5.644;2023-04-24T11:45:35;99939.53;;;17.45;54.99
36260;BME280;22296;50.824;5.644;2023-04-24T11:48:03;99941.06;;;17.43;55.18
36260;BME280;22296;50.824;5.644;2023-04-24T11:50:30;99949.53;;;17.46;55.08
36260;BME280;22296;50.824;5.644;2023-04-24T11:52:57;99943.94;;;17.46;54.95
36260;BME280;22296;50.824;5.644;2023-04-24T11:55:26;99952.59;;;17.41;55.36
36260;BME280;22296;50.824;5.644;2023-04-24T11:57:58;99951.88;;;17.44;55.01
36260;BME280;22296;50.824;5.644;2023-04-24T12:00:27;99957.44;;;17.44;54.98
36260;BME280;22296;50.824;5.644;2023-04-24T12:03:08;99961.38;;;17.43;55.08
36260;BME280;22296;50.824;5.644;2023-04-24T12:05:36;99958.22;;;17.45;54.97
36260;BME280;22296;50.824;5.644;2023-04-24T12:08:03;99964.19;;;17.43;55.06
36260;BME280;22296;50.824;5.644;2023-04-24T12:10:31;99968.59;;;17.44;55.23
36260;BME280;22296;50.824;5.644;2023-04-24T12:12:59;99976.97;;;17.44;55.01
36260;BME280;22296;50.824;5.644;2023-04-24T12:15:27;99983.88;;;17.50;54.77
36260;BME280;22296;50.824;5.644;2023-04-24T12:17:55;99982.25;;;17.49;54.90
36260;BME280;22296;50.824;5.644;2023-04-24T12:20:28;99984.13;;;17.45;54.86
36260;BME280;22296;50.824;5.644;2023-04-24T12:22:56;99991.78;;;17.48;55.11
36260;BME280;22296;50.824;5.644;2023-04-24T12:25:25;99993.84;;;17.51;54.84
36260;BME280;22296;50.824;5.644;2023-04-24T12:28:09;99994.84;;;17.43;55.12
36260;BME280;22296;50.824;5.644;2023-04-24T12:30:48;100000.84;;;17.45;54.88
36260;BME280;22296;50.824;5.644;2023-04-24T12:33:19;100000.84;;;17.45;54.96
36260;BME280;22296;50.824;5.644;2023-04-24T12:35:48;99992.97;;;17.47;54.90
36260;BME280;22296;50.824;5.644;2023-04-24T12:38:15;99996.50;;;17.60;55.20
36260;BME280;22296;50.824;5.644;2023-04-24T12:40:43;99998.41;;;17.72;54.89
36260;BME280;22296;50.824;5.644;2023-04-24T12:45:41;100002.19;;;17.63;54.81
36260;BME280;22296;50.824;5.644;2023-04-24T12:48:08;100011.47;;;17.68;54.17
36260;BME280;22296;50.824;5.644;2023-04-24T12:50:34;100011.25;;;17.60;54.82
36260;BME280;22296;50.824;5.644;2023-04-24T12:53:01;100007.75;;;17.63;54.62
36260;BME280;22296;50.824;5.644;2023-04-24T12:55:28;100006.84;;;17.59;54.91
36260;BME280;22296;50.824;5.644;2023-04-24T12:57:55;100006.41;;;17.57;54.69
36260;BME280;22296;50.824;5.644;2023-04-24T13:00:22;100010.34;;;17.56;54.82
36260;BME280;22296;50.824;5.644;2023-04-24T13:02:49;100015.00;;;17.52;55.51
36260;BME280;22296;50.824;5.644;2023-04-24T13:05:16;100017.03;;;17.68;55.51
36260;BME280;22296;50.824;5.644;2023-04-24T13:07:43;100011.13;;;17.85;54.85
36260;BME280;22296;50.824;5.644;2023-04-24T13:10:10;100016.56;;;17.97;54.60
36260;BME280;22296;50.824;5.644;2023-04-24T13:12:37;100014.06;;;17.76;54.92
36260;BME280;22296;50.824;5.644;2023-04-24T13:15:05;100011.91;;;17.70;54.73
36260;BME280;22296;50.824;5.644;2023-04-24T13:17:32;100009.84;;;17.67;54.98
36260;BME280;22296;50.824;5.644;2023-04-24T13:19:59;99998.22;;;17.64;55.02
36260;BME280;22296;50.824;5.644;2023-04-24T13:22:26;100015.91;;;17.56;55.26
36260;BME280;22296;50.824;5.644;2023-04-24T13:24:53;100008.50;;;17.48;55.38
36260;BME280;22296;50.824;5.644;2023-04-24T13:27:20;100010.03;;;17.46;55.25
36260;BME280;22296;50.824;5.644;2023-04-24T13:29:47;100003.56;;;17.42;55.06
36260;BME280;22296;50.824;5.644;2023-04-24T13:32:14;100013.44;;;17.39;55.25